Time;durP1;ratioP1;P1;durP2;ratioP2;P2;SDS_P1;SDS_P2;PMS_P1;PMS_P2;Temp;Humidity;BMP_temperature;BMP_pressure;BME280_temperature;BME280_humidity;BME280_pressure;Samples;Min_cycle;Max_cycle;Signal;HPM_P1;HPM_P2
2022/07/30 00:00:57;;;;;;;13.43;12.23;;;17.50;99.90;;;;;;5063804;28;20887;-72
2022/07/30 00:03:25;;;;;;;12.77;11.67;;;17.60;99.90;;;;;;5067102;28;20454;-69
2022/07/30 00:05:54;;;;;;;12.60;11.40;;;17.50;99.90;;;;;;5067047;28;20486;-72
2022/07/30 00:08:21;;;;;;;12.97;11.87;;;17.50;99.90;;;;;;5067042;28;20501;-74
2022/07/30 00:10:48;;;;;;;12.30;11.20;;;17.50;99.90;;;;;;5066136;28;20483;-72
2022/07/30 00:13:15;;;;;;;12.90;11.50;;;17.40;99.90;;;;;;5060733;28;20499;-71
2022/07/30 00:15:41;;;;;;;12.57;11.57;;;17.50;99.90;;;;;;5054724;28;20461;-72
2022/07/30 00:18:08;;;;;;;12.23;11.20;;;17.40;99.90;;;;;;5062623;28;20439;-70
2022/07/30 00:20:35;;;;;;;12.87;11.73;;;17.30;99.90;;;;;;5062342;28;20447;-72
2022/07/30 00:23:04;;;;;;;13.07;11.87;;;17.30;99.90;;;;;;5063549;28;20448;-70
2022/07/30 00:25:31;;;;;;;13.13;11.93;;;17.30;99.90;;;;;;5067053;28;20450;-70
2022/07/30 00:27:58;;;;;;;12.77;11.70;;;17.30;99.90;;;;;;5067954;28;20447;-71
2022/07/30 00:30:25;;;;;;;12.53;11.43;;;17.30;99.90;;;;;;5066847;28;20487;-70
2022/07/30 00:32:52;;;;;;;13.10;11.90;;;17.30;99.90;;;;;;5067127;28;20464;-71
2022/07/30 00:35:19;;;;;;;13.53;12.17;;;17.30;99.90;;;;;;5066001;28;20999;-70
2022/07/30 00:37:46;;;;;;;13.23;12.03;;;17.20;99.90;;;;;;5066343;28;20972;-73
2022/07/30 00:40:14;;;;;;;11.53;10.63;;;17.30;99.90;;;;;;5066531;28;20449;-70
2022/07/30 00:42:42;;;;;;;11.17;10.07;;;17.40;99.90;;;;;;5066570;28;20446;-70
2022/07/30 00:45:11;;;;;;;11.30;10.40;;;17.50;99.90;;;;;;5067406;28;20451;-70
2022/07/30 00:47:38;;;;;;;10.67;9.67;;;17.50;99.90;;;;;;5067012;28;20509;-72
2022/07/30 00:50:07;;;;;;;10.90;9.83;;;17.50;99.90;;;;;;5068119;28;20449;-70
2022/07/30 00:52:34;;;;;;;10.37;9.27;;;17.60;99.90;;;;;;5070814;28;20438;-69
2022/07/30 00:55:01;;;;;;;10.03;9.23;;;17.60;99.90;;;;;;5070578;28;20961;-70
2022/07/30 00:57:29;;;;;;;9.83;8.93;;;17.60;99.90;;;;;;5071346;28;20855;-72
2022/07/30 00:59:57;;;;;;;8.37;7.63;;;17.60;99.90;;;;;;5069985;28;20442;-71
2022/07/30 01:02:24;;;;;;;8.30;7.50;;;17.60;99.90;;;;;;5070935;28;20431;-70
2022/07/30 01:04:50;;;;;;;7.90;7.20;;;17.50;99.90;;;;;;5069979;28;20489;-72
2022/07/30 01:07:17;;;;;;;8.20;7.50;;;17.50;99.90;;;;;;5071194;28;20455;-71
2022/07/30 01:09:44;;;;;;;8.40;7.60;;;17.50;99.90;;;;;;5070199;28;21031;-71
2022/07/30 01:12:13;;;;;;;7.23;6.60;;;17.60;99.90;;;;;;5068731;28;20482;-71
2022/07/30 01:14:41;;;;;;;8.30;7.50;;;17.60;99.90;;;;;;5053167;28;20439;-72
2022/07/30 01:17:08;;;;;;;7.43;6.73;;;17.50;99.90;;;;;;5051339;28;20456;-72
2022/07/30 01:19:52;;;;;;;7.13;6.53;;;17.50;99.90;;;;;;5051958;28;20450;-73
2022/07/30 01:22:39;;;;;;;7.90;7.20;;;17.40;99.90;;;;;;5051767;28;20498;-72
2022/07/30 01:25:13;;;;;;;8.00;7.23;;;17.40;99.90;;;;;;5052246;28;20451;-71
2022/07/30 01:27:45;;;;;;;8.37;7.53;;;17.40;99.90;;;;;;5052550;28;20949;-71
2022/07/30 01:30:14;;;;;;;8.47;7.77;;;17.50;99.90;;;;;;5051660;28;20455;-71
2022/07/30 01:32:43;;;;;;;8.70;7.90;;;17.40;99.90;;;;;;5052409;28;20507;-69
2022/07/30 01:35:11;;;;;;;8.23;7.53;;;17.50;99.90;;;;;;5052190;28;20456;-71
2022/07/30 01:37:38;;;;;;;8.87;8.07;;;17.50;99.90;;;;;;5051945;28;20459;-70
2022/07/30 01:40:07;;;;;;;7.40;6.70;;;17.50;99.90;;;;;;5051420;28;20517;-70
2022/07/30 01:42:36;;;;;;;7.87;7.17;;;17.40;99.90;;;;;;5051938;28;20444;-70
2022/07/30 01:45:05;;;;;;;8.03;7.33;;;17.40;99.90;;;;;;5052245;28;20520;-71
2022/07/30 01:47:33;;;;;;;8.30;7.50;;;17.40;99.90;;;;;;5052145;28;20480;-70
2022/07/30 01:50:03;;;;;;;8.60;7.80;;;17.40;99.90;;;;;;5051141;28;20447;-70
2022/07/30 01:52:32;;;;;;;7.80;7.10;;;17.40;99.90;;;;;;5051843;28;20553;-70
2022/07/30 01:55:01;;;;;;;7.70;7.00;;;17.30;99.90;;;;;;5051508;28;20444;-71
2022/07/30 01:57:29;;;;;;;8.83;7.77;;;17.20;99.90;;;;;;5051731;28;21012;-71
2022/07/30 02:00:01;;;;;;;8.07;7.30;;;17.20;99.90;;;;;;5050904;28;20448;-72
2022/07/30 02:02:30;;;;;;;8.17;7.40;;;17.10;99.90;;;;;;5050646;28;20444;-71
2022/07/30 02:04:57;;;;;;;7.30;6.60;;;17.00;99.90;;;;;;5051208;28;20458;-71
2022/07/30 02:07:29;;;;;;;8.97;7.73;;;17.00;99.90;;;;;;5051540;28;20468;-72
2022/07/30 02:09:59;;;;;;;8.03;7.23;;;17.00;99.90;;;;;;5050899;28;20451;-70
2022/07/30 02:12:28;;;;;;;7.90;7.10;;;17.00;99.90;;;;;;5051673;28;20487;-71
2022/07/30 02:15:03;;;;;;;8.30;7.60;;;16.90;99.90;;;;;;5051214;28;20466;-71
2022/07/30 02:17:38;;;;;;;7.70;7.00;;;16.90;99.90;;;;;;5051494;28;20482;-70
2022/07/30 02:20:09;;;;;;;7.27;6.57;;;16.90;99.90;;;;;;5050474;28;20817;-70
2022/07/30 02:22:39;;;;;;;7.77;7.07;;;16.80;99.90;;;;;;5051514;28;21128;-70
2022/07/30 02:25:09;;;;;;;8.90;8.10;;;16.80;99.90;;;;;;5050816;28;20968;-69
2022/07/30 02:27:39;;;;;;;6.90;6.30;;;16.80;99.90;;;;;;5051252;28;21036;-70
2022/07/30 02:30:08;;;;;;;8.87;6.40;;;16.80;99.90;;;;;;5050364;28;20444;-70
2022/07/30 02:32:40;;;;;;;7.23;6.53;;;16.80;99.90;;;;;;5051045;28;20476;-72
2022/07/30 02:35:11;;;;;;;7.77;6.80;;;16.70;99.90;;;;;;5050675;28;20452;-71
2022/07/30 02:37:41;;;;;;;8.20;7.40;;;16.50;99.90;;;;;;5052192;28;20463;-70
2022/07/30 02:40:10;;;;;;;7.63;6.93;;;16.50;99.90;;;;;;5050457;28;20451;-70
2022/07/30 02:42:38;;;;;;;8.43;7.43;;;16.40;99.90;;;;;;5050975;28;20447;-71
2022/07/30 02:45:07;;;;;;;8.37;7.57;;;16.50;99.90;;;;;;5050911;28;20479;-69
2022/07/30 02:47:36;;;;;;;8.30;7.00;;;16.40;99.90;;;;;;5050745;28;20463;-70
2022/07/30 02:50:06;;;;;;;9.17;7.90;;;16.40;99.90;;;;;;5050180;28;20463;-72
2022/07/30 02:52:34;;;;;;;8.43;7.67;;;16.40;99.90;;;;;;5050655;28;21195;-71
2022/07/30 02:55:03;;;;;;;7.77;7.17;;;16.20;99.90;;;;;;5050626;28;20440;-70
2022/07/30 02:57:31;;;;;;;8.20;7.20;;;16.20;99.90;;;;;;5050377;28;20471;-72
2022/07/30 02:59:59;;;;;;;7.97;7.30;;;16.20;99.90;;;;;;5050195;28;20451;-72
2022/07/30 03:02:26;;;;;;;9.70;7.23;;;16.20;99.90;;;;;;5050633;28;20946;-71
2022/07/30 03:04:55;;;;;;;7.37;6.67;;;16.20;99.90;;;;;;5050684;28;20839;-70
2022/07/30 03:07:22;;;;;;;8.87;7.97;;;16.30;99.90;;;;;;5050659;28;20475;-70
2022/07/30 03:09:52;;;;;;;7.97;7.20;;;16.30;99.90;;;;;;5050178;28;20451;-70
2022/07/30 03:12:20;;;;;;;7.23;6.53;;;16.30;99.90;;;;;;5050155;28;20479;-70
2022/07/30 03:14:47;;;;;;;8.70;7.90;;;16.40;99.90;;;;;;5050629;28;20448;-70
2022/07/30 03:17:16;;;;;;;8.47;7.67;;;16.40;99.90;;;;;;5050719;28;20463;-71
2022/07/30 03:19:44;;;;;;;8.53;7.83;;;16.40;99.90;;;;;;5050395;28;20440;-70
2022/07/30 03:22:14;;;;;;;7.60;6.90;;;16.40;99.90;;;;;;5050317;28;20914;-70
2022/07/30 03:24:45;;;;;;;8.60;7.43;;;16.30;99.90;;;;;;5049742;28;20439;-69
2022/07/30 03:27:12;;;;;;;9.10;8.20;;;16.30;99.90;;;;;;5050452;28;20467;-70
2022/07/30 03:29:39;;;;;;;8.23;7.50;;;16.30;99.90;;;;;;5050069;28;20543;-71
2022/07/30 03:32:07;;;;;;;7.30;6.60;;;16.30;99.90;;;;;;5049531;28;20479;-69
2022/07/30 03:34:34;;;;;;;6.90;6.30;;;16.30;99.90;;;;;;5049658;28;20460;-71
2022/07/30 03:37:03;;;;;;;8.10;7.20;;;16.30;99.90;;;;;;5049819;28;20852;-71
2022/07/30 03:39:33;;;;;;;8.40;7.60;;;16.30;99.90;;;;;;5050224;28;20452;-70
2022/07/30 03:42:01;;;;;;;7.67;6.97;;;16.20;99.90;;;;;;5049466;28;20459;-70
2022/07/30 03:44:29;;;;;;;8.30;6.93;;;16.20;99.90;;;;;;5049565;28;20834;-70
2022/07/30 03:46:57;;;;;;;8.40;7.60;;;16.20;99.90;;;;;;5049902;28;20476;-68
2022/07/30 03:49:25;;;;;;;8.90;8.10;;;16.20;99.90;;;;;;5049810;28;20475;-71
2022/07/30 03:51:53;;;;;;;7.93;7.13;;;16.20;99.90;;;;;;5049131;28;20487;-71
2022/07/30 03:54:21;;;;;;;11.60;8.17;;;16.20;99.90;;;;;;5049355;28;20486;-70
2022/07/30 03:56:49;;;;;;;8.63;7.73;;;16.10;99.90;;;;;;5049763;28;20475;-71
2022/07/30 03:59:16;;;;;;;7.37;6.63;;;16.10;99.90;;;;;;5049946;28;20451;-70
2022/07/30 04:01:43;;;;;;;8.20;7.40;;;16.10;99.90;;;;;;5048784;28;20444;-70
2022/07/30 04:04:11;;;;;;;8.57;7.77;;;16.10;99.90;;;;;;5050177;28;20451;-70
2022/07/30 04:06:39;;;;;;;7.70;6.90;;;16.10;99.90;;;;;;5049669;28;21102;-70
2022/07/30 04:09:07;;;;;;;7.60;6.90;;;16.10;99.90;;;;;;5050814;28;20455;-70
2022/07/30 04:11:34;;;;;;;8.33;7.50;;;16.00;99.90;;;;;;5048977;28;21047;-71
2022/07/30 04:14:02;;;;;;;7.47;6.77;;;15.90;99.90;;;;;;5050008;28;20443;-71
2022/07/30 04:16:36;;;;;;;11.47;8.30;;;15.90;99.90;;;;;;5053430;28;21318;-70
2022/07/30 04:19:07;;;;;;;8.90;8.10;;;15.80;99.90;;;;;;5068895;28;20445;-69
2022/07/30 04:21:42;;;;;;;7.70;7.00;;;15.80;99.90;;;;;;5062364;28;20967;-71
2022/07/30 04:24:10;;;;;;;7.40;6.70;;;15.80;99.90;;;;;;5069379;28;20438;-70
2022/07/30 04:26:38;;;;;;;7.93;7.13;;;15.90;99.90;;;;;;5073169;28;20467;-69
2022/07/30 04:29:08;;;;;;;8.40;7.63;;;15.90;99.90;;;;;;5073375;28;20439;-69
2022/07/30 04:31:35;;;;;;;8.10;7.30;;;15.90;99.90;;;;;;5072793;28;20439;-70
2022/07/30 04:34:03;;;;;;;9.43;8.53;;;15.80;99.90;;;;;;5073492;28;20442;-69
2022/07/30 04:36:30;;;;;;;8.83;7.50;;;15.90;99.90;;;;;;5070054;28;20478;-70
2022/07/30 04:38:57;;;;;;;8.03;7.30;;;15.80;99.90;;;;;;5067335;28;20447;-70
2022/07/30 04:41:24;;;;;;;8.53;7.70;;;15.80;99.90;;;;;;5067399;28;20442;-70
2022/07/30 04:43:52;;;;;;;7.57;6.97;;;16.00;99.90;;;;;;5073098;28;20443;-70
2022/07/30 04:46:20;;;;;;;10.00;8.23;;;16.00;99.90;;;;;;5072862;28;21072;-70
2022/07/30 04:48:47;;;;;;;8.07;7.37;;;16.00;99.90;;;;;;5073182;28;20462;-71
2022/07/30 04:51:19;;;;;;;8.80;8.00;;;16.10;99.90;;;;;;5072463;28;20441;-69
2022/07/30 04:53:47;;;;;;;8.23;7.33;;;16.10;99.90;;;;;;5073005;28;20486;-70
2022/07/30 04:56:16;;;;;;;8.13;7.37;;;16.20;99.90;;;;;;5072635;28;20840;-70
2022/07/30 04:58:44;;;;;;;8.90;8.10;;;16.20;99.90;;;;;;5073235;28;20441;-69
2022/07/30 05:01:12;;;;;;;7.90;7.00;;;16.30;99.90;;;;;;5071948;28;20435;-71
2022/07/30 05:03:40;;;;;;;8.03;7.23;;;16.40;99.90;;;;;;5073078;28;20431;-70
2022/07/30 05:06:08;;;;;;;8.13;7.27;;;16.50;99.90;;;;;;5072291;28;20550;-70
2022/07/30 05:08:35;;;;;;;7.10;6.40;;;16.60;99.90;;;;;;5072785;28;20450;-72
2022/07/30 05:11:02;;;;;;;8.73;7.83;;;16.80;99.90;;;;;;5071936;28;20431;-70
2022/07/30 05:13:29;;;;;;;9.40;7.20;;;16.80;99.90;;;;;;5072874;28;20482;-71
2022/07/30 05:15:55;;;;;;;8.00;7.30;;;16.80;99.90;;;;;;5072335;28;20502;-71
2022/07/30 05:18:22;;;;;;;9.40;7.57;;;16.90;99.90;;;;;;5072743;28;20453;-70
2022/07/30 05:20:50;;;;;;;7.87;7.17;;;17.00;99.90;;;;;;5071831;28;20520;-71
2022/07/30 05:23:17;;;;;;;8.43;7.43;;;17.10;99.90;;;;;;5072744;28;20430;-71
2022/07/30 05:25:44;;;;;;;7.80;6.63;;;17.20;99.90;;;;;;5072250;28;20451;-70
2022/07/30 05:28:11;;;;;;;8.33;7.57;;;17.30;99.90;;;;;;5072724;28;20447;-70
2022/07/30 05:30:37;;;;;;;7.93;7.13;;;17.40;99.90;;;;;;5071947;28;20443;-71
2022/07/30 05:33:04;;;;;;;10.80;7.40;;;17.40;99.90;;;;;;5072203;28;20475;-70
2022/07/30 05:35:31;;;;;;;7.30;6.60;;;17.50;99.90;;;;;;5071786;28;20439;-70
2022/07/30 05:38:00;;;;;;;7.80;7.10;;;17.60;99.90;;;;;;5072147;28;20461;-72
2022/07/30 05:40:27;;;;;;;9.90;9.00;;;17.60;99.90;;;;;;5071706;28;20443;-70
2022/07/30 05:42:54;;;;;;;8.67;7.80;;;17.60;99.90;;;;;;5071823;28;20435;-71
2022/07/30 05:45:20;;;;;;;7.60;6.87;;;17.60;99.90;;;;;;5071804;28;20435;-70
2022/07/30 05:47:48;;;;;;;9.57;7.80;;;17.70;99.90;;;;;;5072019;28;20538;-70
2022/07/30 05:50:14;;;;;;;8.17;7.37;;;17.70;99.90;;;;;;5071283;28;20447;-71
2022/07/30 05:52:41;;;;;;;8.53;7.73;;;17.70;99.90;;;;;;5071829;28;20475;-69
2022/07/30 05:55:10;;;;;;;8.10;7.30;;;17.90;99.90;;;;;;5072003;28;20821;-70
2022/07/30 05:57:37;;;;;;;8.70;7.83;;;18.00;99.90;;;;;;5071863;28;20493;-70
2022/07/30 06:00:05;;;;;;;7.87;7.17;;;18.20;99.90;;;;;;5071372;28;20453;-70
2022/07/30 06:02:32;;;;;;;7.70;7.00;;;18.40;99.90;;;;;;5072221;28;20930;-69
2022/07/30 06:04:59;;;;;;;8.90;6.90;;;18.60;99.90;;;;;;5071562;28;20445;-72
2022/07/30 06:07:25;;;;;;;7.60;6.90;;;18.80;99.90;;;;;;5072200;28;20461;-70
2022/07/30 06:09:52;;;;;;;6.87;6.17;;;18.90;99.90;;;;;;5071331;28;20443;-67
2022/07/30 06:12:21;;;;;;;8.90;6.80;;;18.90;99.90;;;;;;5071771;28;20473;-70
2022/07/30 06:14:47;;;;;;;7.17;6.47;;;19.00;99.90;;;;;;5071424;28;20441;-71
2022/07/30 06:17:14;;;;;;;6.97;6.27;;;19.10;99.90;;;;;;5071854;28;20466;-70
2022/07/30 06:19:41;;;;;;;7.00;6.20;;;19.20;99.90;;;;;;5071290;28;21121;-70
2022/07/30 06:22:08;;;;;;;10.57;7.13;;;19.30;99.90;;;;;;5071130;28;20801;-70
2022/07/30 06:24:34;;;;;;;7.30;6.53;;;19.50;99.90;;;;;;5071265;28;20443;-70
2022/07/30 06:27:01;;;;;;;8.10;6.97;;;19.80;99.90;;;;;;5071492;28;20847;-71
2022/07/30 06:29:30;;;;;;;7.33;6.07;;;20.00;99.90;;;;;;5071403;28;20441;-70
2022/07/30 06:31:57;;;;;;;6.53;5.83;;;20.30;99.90;;;;;;5068765;28;20788;-70
2022/07/30 06:34:23;;;;;;;10.07;6.93;;;20.30;99.90;;;;;;5071010;28;20936;-71
2022/07/30 06:36:50;;;;;;;9.20;5.50;;;20.50;99.90;;;;;;5070854;28;20988;-70
2022/07/30 06:39:17;;;;;;;6.10;5.50;;;20.60;99.90;;;;;;5071056;28;20451;-71
2022/07/30 06:41:44;;;;;;;7.03;5.97;;;20.70;99.90;;;;;;5070311;28;20820;-70
2022/07/30 06:44:11;;;;;;;9.17;5.93;;;20.70;99.90;;;;;;5071129;28;20445;-71
2022/07/30 06:46:39;;;;;;;12.70;5.97;;;20.80;99.90;;;;;;5070363;28;20467;-72
2022/07/30 06:49:06;;;;;;;9.00;5.90;;;20.90;99.90;;;;;;5070236;28;20453;-71
2022/07/30 06:51:33;;;;;;;6.80;5.87;;;20.90;99.90;;;;;;5069860;28;20439;-71
2022/07/30 06:53:59;;;;;;;10.20;5.30;;;21.00;99.90;;;;;;5070980;28;20490;-71
2022/07/30 06:56:26;;;;;;;7.53;5.80;;;21.10;99.90;;;;;;5070273;28;20475;-71
2022/07/30 06:58:53;;;;;;;5.73;4.93;;;21.20;99.90;;;;;;5070690;28;20443;-71
2022/07/30 07:01:22;;;;;;;11.80;5.67;;;21.40;99.90;;;;;;5069887;28;20447;-70
2022/07/30 07:03:50;;;;;;;7.93;5.67;;;21.40;99.90;;;;;;5070348;28;20550;-70
2022/07/30 07:06:17;;;;;;;7.63;6.17;;;21.50;99.90;;;;;;5070014;28;20467;-71
2022/07/30 07:08:43;;;;;;;14.07;7.17;;;21.60;99.90;;;;;;5070528;28;20451;-70
2022/07/30 07:11:10;;;;;;;6.10;5.50;;;21.70;99.90;;;;;;5069641;28;20447;-68
2022/07/30 07:13:37;;;;;;;6.83;6.13;;;21.70;99.90;;;;;;5070318;28;20493;-71
2022/07/30 07:16:04;;;;;;;7.93;6.20;;;21.70;99.90;;;;;;5069872;28;20463;-70
2022/07/30 07:18:31;;;;;;;11.40;6.33;;;21.70;99.90;;;;;;5070269;28;20451;-71
2022/07/30 07:20:59;;;;;;;7.93;6.53;;;21.90;99.90;;;;;;5069493;28;20439;-70
2022/07/30 07:23:26;;;;;;;7.27;6.13;;;21.90;99.90;;;;;;5070543;28;20446;-71
2022/07/30 07:25:53;;;;;;;7.20;6.50;;;22.00;99.90;;;;;;5069799;28;20473;-70
2022/07/30 07:28:20;;;;;;;9.70;6.40;;;22.00;99.90;;;;;;5070719;28;20447;-70
2022/07/30 07:30:47;;;;;;;7.47;6.40;;;22.20;99.90;;;;;;5069459;28;20444;-72
2022/07/30 07:33:14;;;;;;;7.23;6.20;;;22.30;99.90;;;;;;5064777;28;20474;-70
2022/07/30 07:35:40;;;;;;;7.40;6.70;;;22.30;99.90;;;;;;5060116;28;21005;-70
2022/07/30 07:38:09;;;;;;;7.90;7.10;;;22.40;99.90;;;;;;5068262;28;20456;-70
2022/07/30 07:40:35;;;;;;;7.67;6.90;;;22.50;99.90;;;;;;5069085;28;20451;-70
2022/07/30 07:43:02;;;;;;;8.03;7.00;;;22.50;99.90;;;;;;5070225;28;20454;-70
2022/07/30 07:45:29;;;;;;;7.03;6.10;;;22.60;99.90;;;;;;5069347;28;20497;-70
2022/07/30 07:47:56;;;;;;;10.77;6.80;;;22.60;99.90;;;;;;5069968;28;20465;-71
2022/07/30 07:50:23;;;;;;;11.93;6.90;;;22.70;99.90;;;;;;5069465;28;20431;-70
2022/07/30 07:52:50;;;;;;;9.57;6.87;;;22.80;99.90;;;;;;5069798;28;20984;-71
2022/07/30 07:55:18;;;;;;;8.97;6.00;;;22.80;99.90;;;;;;5069541;28;20450;-71
2022/07/30 07:57:46;;;;;;;7.70;6.47;;;22.80;99.90;;;;;;5069995;28;20814;-71
2022/07/30 08:00:15;;;;;;;10.43;6.87;;;22.90;99.90;;;;;;5067867;28;20454;-71
2022/07/30 08:02:42;;;;;;;8.15;6.45;;;23.00;99.90;;;;;;5068518;28;20438;-70
2022/07/30 08:05:11;;;;;;;7.00;6.23;;;23.00;99.90;;;;;;5069765;28;20205;-70
2022/07/30 08:07:38;;;;;;;10.93;4.90;;;23.00;99.90;;;;;;5069310;28;20573;-71
2022/07/30 08:10:06;;;;;;;6.30;5.60;;;23.10;99.90;;;;;;5068918;28;20443;-70
2022/07/30 08:12:35;;;;;;;6.63;5.10;;;23.30;99.90;;;;;;5069524;28;20447;-71
2022/07/30 08:15:02;;;;;;;7.13;5.40;;;23.30;99.90;;;;;;5066655;28;20537;-71
2022/07/30 08:17:29;;;;;;;8.60;6.00;;;23.30;99.90;;;;;;5067362;28;20467;-71
2022/07/30 08:19:58;;;;;;;6.30;5.30;;;23.40;99.90;;;;;;5064011;28;20983;-71
2022/07/30 08:22:25;;;;;;;7.03;5.60;;;23.50;99.90;;;;;;5069364;28;20520;-69
2022/07/30 08:24:52;;;;;;;8.13;5.70;;;23.50;99.90;;;;;;5049339;28;20444;-71
2022/07/30 08:27:19;;;;;;;6.23;5.63;;;23.60;99.90;;;;;;5049341;28;20471;-72
2022/07/30 08:29:47;;;;;;;7.00;5.30;;;23.60;99.90;;;;;;5048979;28;20444;-71
2022/07/30 08:32:14;;;;;;;5.63;4.60;;;23.60;99.60;;;;;;5049307;28;20563;-70
2022/07/30 08:34:40;;;;;;;6.30;4.50;;;23.80;99.90;;;;;;5049106;28;20479;-71
2022/07/30 08:37:07;;;;;;;6.13;4.40;;;23.90;98.00;;;;;;5049315;28;20511;-72
2022/07/30 08:39:34;;;;;;;5.00;4.50;;;24.00;98.20;;;;;;5049360;28;20462;-71
2022/07/30 08:42:03;;;;;;;6.37;5.13;;;24.10;97.30;;;;;;5061563;28;20978;-72
2022/07/30 08:44:30;;;;;;;8.73;6.63;;;24.20;97.40;;;;;;5059982;28;20976;-72
2022/07/30 08:46:59;;;;;;;5.00;4.50;;;24.00;97.70;;;;;;5065618;28;20466;-71
2022/07/30 08:49:27;;;;;;;5.43;4.23;;;24.00;98.20;;;;;;5063806;28;20827;-70
2022/07/30 08:51:54;;;;;;;5.10;3.97;;;24.00;97.80;;;;;;5065416;28;20951;-71
2022/07/30 08:54:21;;;;;;;5.17;4.50;;;24.30;98.00;;;;;;5056724;28;20476;-70
2022/07/30 08:56:49;;;;;;;7.00;4.33;;;24.50;95.70;;;;;;5048962;28;20467;-70
2022/07/30 08:59:17;;;;;;;12.53;4.87;;;24.50;95.60;;;;;;5056777;28;20448;-69
2022/07/30 09:01:44;;;;;;;6.07;4.57;;;24.50;96.20;;;;;;5056670;28;20443;-71
2022/07/30 09:04:13;;;;;;;4.90;4.40;;;24.70;96.40;;;;;;5060947;28;20440;-70
2022/07/30 09:06:40;;;;;;;5.20;4.17;;;25.00;96.60;;;;;;5061148;28;20478;-70
2022/07/30 09:09:07;;;;;;;5.50;3.83;;;25.10;96.10;;;;;;5062090;28;20836;-72
2022/07/30 09:11:34;;;;;;;5.90;4.67;;;25.00;95.40;;;;;;5067175;28;20945;-70
2022/07/30 09:14:08;;;;;;;5.60;4.33;;;24.90;94.70;;;;;;5070009;28;20512;-71
2022/07/30 09:16:35;;;;;;;5.73;4.77;;;24.90;94.50;;;;;;5069206;28;20815;-72
2022/07/30 09:19:14;;;;;;;4.80;4.30;;;24.90;94.00;;;;;;5071054;28;20648;-71
2022/07/30 09:21:41;;;;;;;6.63;4.63;;;25.00;94.50;;;;;;5068581;28;20972;-71
2022/07/30 09:24:09;;;;;;;6.57;4.87;;;25.30;94.30;;;;;;5063127;28;20451;-72
2022/07/30 09:26:53;;;;;;;5.70;4.50;;;25.40;92.70;;;;;;5065085;28;20525;-70
2022/07/30 09:29:21;;;;;;;5.00;4.60;;;25.20;93.90;;;;;;5071610;28;20435;-71
2022/07/30 09:31:56;;;;;;;6.60;4.70;;;25.10;93.70;;;;;;5069242;28;20453;-66
2022/07/30 09:34:27;;;;;;;5.53;4.70;;;25.10;93.70;;;;;;5066544;28;20482;-71
2022/07/30 09:36:54;;;;;;;4.50;4.10;;;25.20;93.70;;;;;;5066611;28;20509;-70
2022/07/30 09:39:31;;;;;;;4.97;4.30;;;25.50;92.10;;;;;;5068561;28;20453;-68
2022/07/30 09:41:58;;;;;;;4.70;3.93;;;25.60;91.30;;;;;;5066413;28;20442;-67
2022/07/30 09:44:28;;;;;;;4.10;3.30;;;25.60;91.10;;;;;;5069289;28;20457;-73
2022/07/30 09:46:56;;;;;;;6.00;4.40;;;25.80;91.10;;;;;;5068962;28;20501;-70
2022/07/30 09:49:26;;;;;;;6.87;3.97;;;26.00;90.50;;;;;;5068285;28;20473;-70
2022/07/30 09:51:55;;;;;;;5.30;4.40;;;26.40;91.00;;;;;;5070909;28;20458;-69
2022/07/30 09:54:22;;;;;;;6.27;4.27;;;26.30;90.20;;;;;;5064061;28;20548;-70
2022/07/30 09:57:04;;;;;;;7.33;4.17;;;25.80;91.00;;;;;;5065963;28;20455;-68
2022/07/30 09:59:32;;;;;;;4.20;3.67;;;25.90;90.70;;;;;;5065761;28;20458;-70
2022/07/30 10:01:59;;;;;;;4.20;3.80;;;26.40;89.40;;;;;;5067922;28;20474;-70
2022/07/30 10:04:28;;;;;;;3.80;3.13;;;26.90;87.30;;;;;;5067895;28;20527;-68
2022/07/30 10:06:56;;;;;;;6.50;3.20;;;27.40;84.90;;;;;;5070886;28;20987;-70
2022/07/30 10:09:27;;;;;;;5.90;3.80;;;27.60;84.70;;;;;;5060911;28;20453;-68
2022/07/30 10:11:56;;;;;;;4.00;3.10;;;28.00;82.80;;;;;;5067695;28;20448;-73
2022/07/30 10:14:24;;;;;;;6.70;3.80;;;28.20;80.50;;;;;;5069228;28;20931;-71
2022/07/30 10:16:51;;;;;;;5.70;3.33;;;27.90;77.60;;;;;;5071217;28;20459;-71
2022/07/30 10:19:18;;;;;;;3.67;3.37;;;27.60;78.30;;;;;;5071344;28;20979;-71
2022/07/30 10:21:48;;;;;;;5.50;3.20;;;27.70;80.10;;;;;;5067570;28;20462;-68
2022/07/30 10:24:17;;;;;;;3.57;3.03;;;27.80;79.10;;;;;;5067460;28;20448;-71
2022/07/30 10:26:46;;;;;;;4.00;3.33;;;27.90;78.30;;;;;;5064936;28;20600;-69
2022/07/30 10:29:17;;;;;;;5.43;2.83;;;27.90;78.90;;;;;;5066278;28;20451;-70
2022/07/30 10:31:44;;;;;;;4.40;3.50;;;27.80;78.50;;;;;;5065675;28;20511;-69
2022/07/30 10:34:12;;;;;;;5.10;2.77;;;28.00;77.10;;;;;;5065701;28;21287;-69
2022/07/30 10:36:42;;;;;;;5.37;3.63;;;28.50;78.00;;;;;;5067808;28;20581;-70
2022/07/30 10:39:15;;;;;;;8.47;3.30;;;28.80;76.20;;;;;;5057867;28;21010;-69
2022/07/30 10:41:53;;;;;;;4.90;3.27;;;28.70;77.10;;;;;;5066233;28;20450;-71
2022/07/30 10:44:48;;;;;;;5.53;3.27;;;28.60;75.90;;;;;;5061508;28;20453;-71
2022/07/30 10:47:19;;;;;;;4.77;3.20;;;28.60;76.20;;;;;;5057055;28;21527;-69
2022/07/30 10:50:08;;;;;;;5.13;3.10;;;29.00;74.90;;;;;;5060823;28;20955;-69
2022/07/30 10:52:50;;;;;;;5.00;3.07;;;29.20;73.20;;;;;;5069626;28;20447;-70
2022/07/30 10:55:20;;;;;;;4.60;3.10;;;29.40;72.70;;;;;;5069681;28;20531;-68
2022/07/30 10:58:04;;;;;;;6.40;3.37;;;29.70;72.80;;;;;;5070499;28;20454;-70
2022/07/30 11:00:32;;;;;;;3.30;2.70;;;29.60;70.60;;;;;;5063336;28;21055;-69
2022/07/30 11:03:19;;;;;;;3.47;3.17;;;29.80;71.70;;;;;;5070082;28;20881;-70
2022/07/30 11:05:48;;;;;;;6.17;3.30;;;29.20;71.70;;;;;;5069485;28;20466;-69
2022/07/30 11:08:36;;;;;;;4.03;2.87;;;28.30;75.20;;;;;;5069908;28;20443;-69
2022/07/30 11:11:26;;;;;;;3.40;3.10;;;28.50;76.50;;;;;;5075543;28;20441;-71
2022/07/30 11:13:55;;;;;;;5.37;3.20;;;28.90;73.80;;;;;;5053024;28;20536;-70
2022/07/30 11:16:23;;;;;;;4.70;3.50;;;28.90;71.60;;;;;;5069311;28;20463;-69
2022/07/30 11:19:07;;;;;;;4.27;3.40;;;28.90;72.00;;;;;;5069765;28;20440;-70
2022/07/30 11:21:34;;;;;;;4.40;2.63;;;28.70;71.70;;;;;;5065190;28;20554;-69
2022/07/30 11:24:02;;;;;;;3.80;2.50;;;28.70;71.00;;;;;;5059189;28;20447;-70
2022/07/30 11:26:48;;;;;;;4.13;2.67;;;29.00;70.40;;;;;;5066984;28;20855;-70
2022/07/30 11:29:33;;;;;;;4.67;2.70;;;29.30;69.90;;;;;;5056550;28;20436;-69
2022/07/30 11:32:25;;;;;;;4.83;2.80;;;29.20;70.00;;;;;;5051135;28;20447;-71
2022/07/30 11:34:52;;;;;;;5.60;3.47;;;28.50;71.20;;;;;;5067261;28;20502;-71
2022/07/30 11:37:19;;;;;;;5.57;2.67;;;28.30;71.10;;;;;;5067735;28;20479;-71
2022/07/30 11:40:11;;;;;;;2.83;2.50;;;28.60;71.00;;;;;;5069022;28;20969;-68
2022/07/30 11:42:41;;;;;;;4.63;2.97;;;29.30;68.80;;;;;;5069405;28;20475;-71
2022/07/30 11:45:29;;;;;;;3.70;2.37;;;29.50;66.50;;;;;;5069238;28;21240;-70
2022/07/30 11:47:58;;;;;;;6.80;3.27;;;29.40;66.50;;;;;;5053440;28;20986;-70
2022/07/30 11:50:27;;;;;;;5.70;2.90;;;29.40;66.70;;;;;;5069004;28;20444;-68
2022/07/30 11:52:56;;;;;;;4.60;2.73;;;29.80;66.20;;;;;;5069339;28;20443;-70
2022/07/30 11:55:25;;;;;;;3.50;2.33;;;29.90;65.00;;;;;;5068574;28;20489;-69
2022/07/30 11:57:53;;;;;;;3.53;2.40;;;29.80;64.30;;;;;;5066281;28;20447;-70
2022/07/30 12:00:20;;;;;;;3.83;2.10;;;30.00;64.30;;;;;;5064248;28;20465;-69
2022/07/30 12:02:48;;;;;;;5.23;2.10;;;30.10;64.10;;;;;;5058801;28;21322;-69
2022/07/30 12:05:15;;;;;;;5.30;2.53;;;30.00;63.50;;;;;;5060952;28;20458;-70
2022/07/30 12:07:42;;;;;;;4.40;2.70;;;30.30;64.20;;;;;;5069355;28;20458;-69
2022/07/30 12:10:16;;;;;;;5.60;2.77;;;30.40;64.00;;;;;;5067431;28;20440;-69
2022/07/30 12:12:43;;;;;;;9.20;2.27;;;30.90;62.20;;;;;;5069176;28;20439;-69
2022/07/30 12:15:28;;;;;;;5.07;2.87;;;31.40;61.00;;;;;;5069505;28;20478;-69
2022/07/30 12:17:55;;;;;;;4.47;2.40;;;31.90;60.30;;;;;;5062499;28;20450;-71
2022/07/30 12:20:22;;;;;;;4.83;2.37;;;31.70;58.70;;;;;;5058761;28;20466;-70
2022/07/30 12:22:49;;;;;;;3.20;2.63;;;31.30;59.30;;;;;;5063523;28;20455;-69
2022/07/30 12:25:16;;;;;;;3.20;2.50;;;30.70;60.30;;;;;;5062687;28;20448;-69
2022/07/30 12:27:46;;;;;;;3.67;2.80;;;30.80;60.30;;;;;;5063355;28;20447;-68
2022/07/30 12:30:16;;;;;;;4.50;2.40;;;31.00;60.90;;;;;;5062895;28;20474;-69
2022/07/30 12:32:44;;;;;;;3.50;2.60;;;31.50;59.40;;;;;;5063995;28;20451;-70
2022/07/30 12:35:11;;;;;;;4.80;3.13;;;31.30;59.10;;;;;;5060013;28;20578;-69
2022/07/30 12:37:39;;;;;;;3.80;2.53;;;30.50;60.10;;;;;;5063688;28;20463;-70
2022/07/30 12:40:11;;;;;;;4.50;2.87;;;29.50;61.90;;;;;;5063786;28;20462;-68
2022/07/30 12:42:50;;;;;;;3.97;3.10;;;28.80;64.00;;;;;;5065163;28;20972;-70
2022/07/30 12:45:29;;;;;;;3.13;2.83;;;29.00;63.50;;;;;;5064020;28;20492;-70
2022/07/30 12:47:56;;;;;;;5.37;2.63;;;29.70;61.80;;;;;;5068065;28;20443;-68
2022/07/30 12:50:23;;;;;;;3.43;2.57;;;30.00;60.60;;;;;;5068274;28;20451;-70
2022/07/30 12:52:51;;;;;;;3.47;2.60;;;30.70;61.50;;;;;;5069413;28;20469;-70
2022/07/30 12:55:19;;;;;;;2.60;1.90;;;31.20;58.60;;;;;;5072983;28;20486;-69